Terminal Aerodrome Forecast
Issued by NWS

Home | Current Version | Previous Version | Text Only | Print | Product List | Glossary Off
Versions: 1 2 3 4 5 6 7 8 9 10 11 12 13 14 15 16 17 18 19

000
FTUS43 KICT 150520
TAFHUT
TAF
KHUT 150520Z 1506/1606 12008KT P6SM OVC050
     FM151100 12008KT P6SM SCT015 OVC035
     FM151600 15010KT P6SM BKN035
     FM152000 15015G22KT P6SM SCT035=

USA.gov is the U.S. government's official web portal to all federal, state and local government web resources and services.